N180GS LEMH-LIEE
Flight info
| Callsign | N180GS |
|---|---|
| Flight time | 1h 23m |
| Altitude | 7000 |
| Route | CAG |
| Aircraft | BE36/L-VGD/C |
Departure
| Time | 2026-05-08 04:52 |
|---|---|
| Airport | Menorca Airport (LEMH) |
Arrival
| Time | 2026-05-08 06:15 |
|---|---|
| Airport | Cagliari Elmas Airport (LIEE) |
| Time | Latitude | Longitude | Altitude | Speed | Heading |
|---|---|---|---|---|---|
| 2026-05-08 04:29 | 39.86121 | 4.22257 | 294 ft | 0 kts | 9° |
| 2026-05-08 04:40 | 39.86125 | 4.22258 | 294 ft | 2 kts | 36° |
| 2026-05-08 04:41 | 39.86145 | 4.22291 | 295 ft | 0 kts | 1° |
| 2026-05-08 04:41 | 39.86160 | 4.22292 | 295 ft | 0 kts | 2° |
| 2026-05-08 04:41 | 39.86163 | 4.22292 | 295 ft | 2 kts | 1° |
| 2026-05-08 04:41 | 39.86178 | 4.22244 | 295 ft | 11 kts | 276° |
| 2026-05-08 04:42 | 39.86189 | 4.22150 | 295 ft | 8 kts | 278° |
| 2026-05-08 04:42 | 39.86190 | 4.22146 | 295 ft | 0 kts | 278° |
| 2026-05-08 04:42 | 39.86180 | 4.22106 | 295 ft | 10 kts | 213° |
| 2026-05-08 04:42 | 39.86077 | 4.22068 | 294 ft | 20 kts | 186° |
| 2026-05-08 04:43 | 39.85912 | 4.22035 | 292 ft | 27 kts | 189° |
| 2026-05-08 04:43 | 39.85727 | 4.21994 | 290 ft | 28 kts | 189° |
| 2026-05-08 04:43 | 39.85548 | 4.21961 | 288 ft | 23 kts | 188° |
| 2026-05-08 04:43 | 39.85410 | 4.21933 | 286 ft | 18 kts | 188° |
| 2026-05-08 04:44 | 39.85280 | 4.21905 | 285 ft | 21 kts | 189° |
| 2026-05-08 04:44 | 39.85157 | 4.21880 | 283 ft | 11 kts | 191° |
| 2026-05-08 04:44 | 39.85088 | 4.21860 | 283 ft | 10 kts | 198° |
| 2026-05-08 04:44 | 39.85061 | 4.21795 | 282 ft | 8 kts | 271° |
| 2026-05-08 04:45 | 39.85068 | 4.21773 | 282 ft | 0 kts | 307° |
| 2026-05-08 04:49 | 39.85069 | 4.21772 | 282 ft | 2 kts | 307° |
| 2026-05-08 04:49 | 39.85103 | 4.21715 | 282 ft | 13 kts | 311° |
| 2026-05-08 04:49 | 39.85170 | 4.21645 | 283 ft | 10 kts | 356° |
| 2026-05-08 04:50 | 39.85181 | 4.21646 | 283 ft | 0 kts | 7° |
| 2026-05-08 04:50 | 39.85197 | 4.21648 | 283 ft | 12 kts | 9° |
| 2026-05-08 04:51 | 39.85515 | 4.21715 | 288 ft | 76 kts | 9° |
| 2026-05-08 04:51 | 39.86147 | 4.21810 | 385 ft | 104 kts | 10° |
| 2026-05-08 04:51 | 39.86905 | 4.21901 | 614 ft | 114 kts | 6° |
| 2026-05-08 04:51 | 39.87716 | 4.21960 | 861 ft | 120 kts | 6° |
| 2026-05-08 04:52 | 39.88566 | 4.22013 | 1131 ft | 125 kts | 7° |
| 2026-05-08 04:52 | 39.89459 | 4.22056 | 1394 ft | 131 kts | 7° |
| 2026-05-08 04:52 | 39.90391 | 4.22083 | 1660 ft | 136 kts | 7° |
| 2026-05-08 04:52 | 39.91223 | 4.22495 | 1912 ft | 129 kts | 52° |
| 2026-05-08 04:53 | 39.91445 | 4.23615 | 2099 ft | 133 kts | 92° |
| 2026-05-08 04:53 | 39.91333 | 4.24815 | 2291 ft | 137 kts | 97° |
| 2026-05-08 04:53 | 39.91037 | 4.25994 | 2479 ft | 141 kts | 118° |
| 2026-05-08 04:53 | 39.90666 | 4.27180 | 2659 ft | 143 kts | 99° |
| 2026-05-08 04:54 | 39.90583 | 4.28478 | 2839 ft | 145 kts | 96° |
| 2026-05-08 04:54 | 39.90463 | 4.29786 | 3019 ft | 145 kts | 98° |
| 2026-05-08 04:54 | 39.90320 | 4.31090 | 3197 ft | 146 kts | 99° |
| 2026-05-08 04:54 | 39.90169 | 4.32398 | 3373 ft | 146 kts | 99° |
| 2026-05-08 04:55 | 39.90017 | 4.33709 | 3549 ft | 147 kts | 100° |
| 2026-05-08 04:55 | 39.89865 | 4.35020 | 3723 ft | 146 kts | 100° |
| 2026-05-08 04:55 | 39.89712 | 4.36332 | 3900 ft | 147 kts | 100° |
| 2026-05-08 04:55 | 39.89558 | 4.37642 | 4078 ft | 146 kts | 101° |
| 2026-05-08 04:56 | 39.89406 | 4.38950 | 4254 ft | 146 kts | 101° |
| 2026-05-08 04:56 | 39.89255 | 4.40236 | 4429 ft | 145 kts | 101° |
| 2026-05-08 04:56 | 39.89102 | 4.41536 | 4612 ft | 145 kts | 101° |
| 2026-05-08 04:56 | 39.88949 | 4.42835 | 4788 ft | 145 kts | 101° |
| 2026-05-08 04:57 | 39.88797 | 4.44137 | 4963 ft | 146 kts | 101° |
| 2026-05-08 04:57 | 39.88643 | 4.45436 | 5136 ft | 145 kts | 101° |
| 2026-05-08 04:57 | 39.88492 | 4.46731 | 5309 ft | 144 kts | 101° |
| 2026-05-08 04:57 | 39.88340 | 4.48016 | 5483 ft | 143 kts | 101° |
| 2026-05-08 04:58 | 39.88188 | 4.49300 | 5660 ft | 143 kts | 101° |
| 2026-05-08 04:58 | 39.88037 | 4.50581 | 5837 ft | 143 kts | 100° |
| 2026-05-08 04:58 | 39.87886 | 4.51859 | 6014 ft | 143 kts | 100° |
| 2026-05-08 04:58 | 39.87734 | 4.53142 | 6194 ft | 143 kts | 100° |
| 2026-05-08 04:59 | 39.87582 | 4.54429 | 6373 ft | 144 kts | 100° |
| 2026-05-08 04:59 | 39.87429 | 4.55716 | 6537 ft | 144 kts | 100° |
| 2026-05-08 04:59 | 39.87276 | 4.57008 | 6710 ft | 144 kts | 100° |
| 2026-05-08 04:59 | 39.87121 | 4.58303 | 6874 ft | 145 kts | 100° |
| 2026-05-08 05:00 | 39.86966 | 4.59610 | 7010 ft | 148 kts | 101° |
| 2026-05-08 05:00 | 39.86803 | 4.60964 | 7018 ft | 158 kts | 101° |
| 2026-05-08 05:00 | 39.86631 | 4.62404 | 7029 ft | 164 kts | 101° |
| 2026-05-08 05:00 | 39.86454 | 4.63895 | 7029 ft | 169 kts | 101° |
| 2026-05-08 05:01 | 39.86271 | 4.65426 | 7027 ft | 172 kts | 101° |
| 2026-05-08 05:01 | 39.86087 | 4.66973 | 7028 ft | 174 kts | 100° |
| 2026-05-08 05:01 | 39.85901 | 4.68525 | 7029 ft | 173 kts | 101° |
| 2026-05-08 05:01 | 39.85715 | 4.70081 | 7029 ft | 174 kts | 101° |
| 2026-05-08 05:02 | 39.85527 | 4.71644 | 7028 ft | 175 kts | 101° |
| 2026-05-08 05:02 | 39.85338 | 4.73218 | 7032 ft | 176 kts | 101° |
| 2026-05-08 05:02 | 39.85149 | 4.74795 | 7031 ft | 177 kts | 100° |
| 2026-05-08 05:02 | 39.84958 | 4.76375 | 7031 ft | 177 kts | 101° |
| 2026-05-08 05:03 | 39.84767 | 4.77960 | 7030 ft | 177 kts | 100° |
| 2026-05-08 05:03 | 39.84579 | 4.79520 | 7030 ft | 177 kts | 101° |
| 2026-05-08 05:03 | 39.84388 | 4.81100 | 7030 ft | 177 kts | 100° |
| 2026-05-08 05:03 | 39.84197 | 4.82681 | 7030 ft | 176 kts | 100° |
| 2026-05-08 05:04 | 39.84006 | 4.84259 | 7031 ft | 177 kts | 100° |
| 2026-05-08 05:04 | 39.83815 | 4.85837 | 7028 ft | 176 kts | 100° |
| 2026-05-08 05:04 | 39.83623 | 4.87414 | 7029 ft | 176 kts | 100° |
| 2026-05-08 05:04 | 39.83431 | 4.88992 | 7027 ft | 177 kts | 101° |
| 2026-05-08 05:05 | 39.83239 | 4.90573 | 7029 ft | 177 kts | 101° |
| 2026-05-08 05:05 | 39.83111 | 4.91623 | 7029 ft | 177 kts | 100° |
| 2026-05-08 05:05 | 39.82918 | 4.93206 | 7029 ft | 177 kts | 101° |
| 2026-05-08 05:05 | 39.82662 | 4.95303 | 7029 ft | 177 kts | 101° |
| 2026-05-08 05:06 | 39.82468 | 4.96886 | 7023 ft | 177 kts | 100° |
| 2026-05-08 05:06 | 39.82274 | 4.98473 | 7023 ft | 178 kts | 100° |
| 2026-05-08 05:06 | 39.82079 | 5.00062 | 7023 ft | 178 kts | 100° |
| 2026-05-08 05:06 | 39.81947 | 5.01137 | 7023 ft | 178 kts | 100° |
| 2026-05-08 05:07 | 39.81755 | 5.02707 | 7024 ft | 178 kts | 100° |
| 2026-05-08 05:07 | 39.81559 | 5.04302 | 7024 ft | 178 kts | 101° |
| 2026-05-08 05:07 | 39.81362 | 5.05895 | 7024 ft | 179 kts | 100° |
| 2026-05-08 05:07 | 39.81166 | 5.07490 | 7024 ft | 179 kts | 101° |
| 2026-05-08 05:08 | 39.80969 | 5.09085 | 7024 ft | 179 kts | 100° |
| 2026-05-08 05:08 | 39.80772 | 5.10683 | 7024 ft | 179 kts | 100° |
| 2026-05-08 05:08 | 39.80574 | 5.12279 | 7024 ft | 179 kts | 100° |
| 2026-05-08 05:08 | 39.80377 | 5.13875 | 7024 ft | 179 kts | 101° |
| 2026-05-08 05:09 | 39.80179 | 5.15470 | 7022 ft | 179 kts | 100° |
| 2026-05-08 05:09 | 39.79981 | 5.17065 | 7021 ft | 179 kts | 100° |
| 2026-05-08 05:09 | 39.79783 | 5.18663 | 7021 ft | 179 kts | 100° |
| 2026-05-08 05:09 | 39.79584 | 5.20256 | 7021 ft | 179 kts | 100° |
| 2026-05-08 05:10 | 39.79386 | 5.21854 | 7024 ft | 179 kts | 101° |
| 2026-05-08 05:10 | 39.78987 | 5.25047 | 7024 ft | 179 kts | 100° |
| 2026-05-08 05:10 | 39.78790 | 5.26624 | 7024 ft | 179 kts | 100° |
| 2026-05-08 05:11 | 39.78591 | 5.28221 | 7021 ft | 179 kts | 100° |
| 2026-05-08 05:11 | 39.78391 | 5.29815 | 7021 ft | 179 kts | 101° |
| 2026-05-08 05:11 | 39.78191 | 5.31409 | 7021 ft | 179 kts | 100° |
| 2026-05-08 05:11 | 39.77991 | 5.33003 | 7021 ft | 179 kts | 100° |
| 2026-05-08 05:12 | 39.77791 | 5.34598 | 7026 ft | 179 kts | 100° |
| 2026-05-08 05:12 | 39.77588 | 5.36207 | 7025 ft | 181 kts | 100° |
| 2026-05-08 05:12 | 39.77384 | 5.37824 | 7026 ft | 182 kts | 100° |
| 2026-05-08 05:12 | 39.77180 | 5.39446 | 7025 ft | 182 kts | 100° |
| 2026-05-08 05:13 | 39.76974 | 5.41074 | 7025 ft | 183 kts | 100° |
| 2026-05-08 05:13 | 39.76769 | 5.42698 | 7026 ft | 182 kts | 100° |
| 2026-05-08 05:13 | 39.76564 | 5.44324 | 7026 ft | 182 kts | 100° |
| 2026-05-08 05:13 | 39.76358 | 5.45946 | 7026 ft | 182 kts | 100° |
| 2026-05-08 05:14 | 39.76152 | 5.47570 | 7026 ft | 182 kts | 100° |
| 2026-05-08 05:14 | 39.75945 | 5.49197 | 7026 ft | 182 kts | 100° |
| 2026-05-08 05:14 | 39.75738 | 5.50824 | 7027 ft | 182 kts | 100° |
| 2026-05-08 05:14 | 39.75531 | 5.52450 | 7027 ft | 182 kts | 100° |
| 2026-05-08 05:15 | 39.75324 | 5.54075 | 7024 ft | 182 kts | 100° |
| 2026-05-08 05:15 | 39.75117 | 5.55702 | 7023 ft | 183 kts | 100° |
| 2026-05-08 05:15 | 39.74908 | 5.57334 | 7024 ft | 183 kts | 100° |
| 2026-05-08 05:15 | 39.74700 | 5.58961 | 7024 ft | 183 kts | 100° |
| 2026-05-08 05:16 | 39.74492 | 5.60587 | 7024 ft | 182 kts | 100° |
| 2026-05-08 05:16 | 39.74287 | 5.62191 | 7024 ft | 182 kts | 100° |
| 2026-05-08 05:16 | 39.74076 | 5.63837 | 7024 ft | 183 kts | 100° |
| 2026-05-08 05:16 | 39.73869 | 5.65445 | 7023 ft | 183 kts | 100° |
| 2026-05-08 05:17 | 39.73659 | 5.67074 | 7027 ft | 183 kts | 100° |
| 2026-05-08 05:17 | 39.73449 | 5.68705 | 7028 ft | 182 kts | 100° |
| 2026-05-08 05:17 | 39.73240 | 5.70330 | 7027 ft | 182 kts | 100° |
| 2026-05-08 05:17 | 39.73030 | 5.71959 | 7024 ft | 183 kts | 101° |
| 2026-05-08 05:18 | 39.72818 | 5.73602 | 7022 ft | 185 kts | 101° |
| 2026-05-08 05:18 | 39.72603 | 5.75255 | 7024 ft | 186 kts | 101° |
| 2026-05-08 05:18 | 39.72388 | 5.76916 | 7024 ft | 186 kts | 101° |
| 2026-05-08 05:18 | 39.72177 | 5.78547 | 7025 ft | 186 kts | 101° |
| 2026-05-08 05:19 | 39.71962 | 5.80206 | 7021 ft | 186 kts | 101° |
| 2026-05-08 05:19 | 39.71746 | 5.81868 | 7020 ft | 187 kts | 101° |
| 2026-05-08 05:19 | 39.71528 | 5.83536 | 7022 ft | 187 kts | 101° |
| 2026-05-08 05:19 | 39.71312 | 5.85200 | 7022 ft | 186 kts | 101° |
| 2026-05-08 05:20 | 39.71096 | 5.86857 | 7026 ft | 186 kts | 101° |
| 2026-05-08 05:20 | 39.70880 | 5.88515 | 7026 ft | 186 kts | 101° |
| 2026-05-08 05:20 | 39.70663 | 5.90175 | 7025 ft | 187 kts | 101° |
| 2026-05-08 05:20 | 39.70444 | 5.91843 | 7026 ft | 187 kts | 101° |
| 2026-05-08 05:21 | 39.70226 | 5.93510 | 7026 ft | 187 kts | 100° |
| 2026-05-08 05:21 | 39.70008 | 5.95174 | 7027 ft | 187 kts | 101° |
| 2026-05-08 05:21 | 39.69789 | 5.96838 | 7027 ft | 187 kts | 101° |
| 2026-05-08 05:21 | 39.69571 | 5.98503 | 7025 ft | 187 kts | 101° |
| 2026-05-08 05:22 | 39.69350 | 6.00171 | 7027 ft | 187 kts | 101° |
| 2026-05-08 05:22 | 39.69131 | 6.01840 | 7026 ft | 188 kts | 101° |
| 2026-05-08 05:22 | 39.68910 | 6.03509 | 7028 ft | 187 kts | 101° |
| 2026-05-08 05:22 | 39.68691 | 6.05175 | 7027 ft | 187 kts | 101° |
| 2026-05-08 05:23 | 39.68473 | 6.06821 | 7023 ft | 187 kts | 101° |
| 2026-05-08 05:23 | 39.68252 | 6.08495 | 7022 ft | 188 kts | 101° |
| 2026-05-08 05:23 | 39.68031 | 6.10159 | 7027 ft | 187 kts | 101° |
| 2026-05-08 05:23 | 39.67810 | 6.11822 | 7027 ft | 186 kts | 101° |
| 2026-05-08 05:24 | 39.67591 | 6.13478 | 7027 ft | 186 kts | 101° |
| 2026-05-08 05:24 | 39.67370 | 6.15135 | 7027 ft | 186 kts | 101° |
| 2026-05-08 05:24 | 39.67149 | 6.16798 | 7026 ft | 187 kts | 101° |
| 2026-05-08 05:24 | 39.66927 | 6.18461 | 7025 ft | 187 kts | 101° |
| 2026-05-08 05:25 | 39.66708 | 6.20102 | 7027 ft | 186 kts | 100° |
| 2026-05-08 05:25 | 39.66488 | 6.21754 | 7027 ft | 186 kts | 101° |
| 2026-05-08 05:25 | 39.66266 | 6.23407 | 7026 ft | 186 kts | 101° |
| 2026-05-08 05:25 | 39.66045 | 6.25064 | 7025 ft | 186 kts | 101° |
| 2026-05-08 05:26 | 39.65823 | 6.26717 | 7021 ft | 186 kts | 101° |
| 2026-05-08 05:26 | 39.65602 | 6.28369 | 7021 ft | 186 kts | 101° |
| 2026-05-08 05:26 | 39.65379 | 6.30023 | 7022 ft | 186 kts | 101° |
| 2026-05-08 05:26 | 39.65157 | 6.31674 | 7022 ft | 186 kts | 101° |
| 2026-05-08 05:27 | 39.64934 | 6.33334 | 7021 ft | 187 kts | 101° |
| 2026-05-08 05:27 | 39.64710 | 6.34994 | 7022 ft | 187 kts | 101° |
| 2026-05-08 05:27 | 39.64486 | 6.36654 | 7021 ft | 186 kts | 101° |
| 2026-05-08 05:27 | 39.64263 | 6.38306 | 7022 ft | 186 kts | 101° |
| 2026-05-08 05:28 | 39.64039 | 6.39958 | 7019 ft | 186 kts | 101° |
| 2026-05-08 05:28 | 39.63816 | 6.41612 | 7017 ft | 186 kts | 101° |
| 2026-05-08 05:28 | 39.63591 | 6.43266 | 7018 ft | 186 kts | 101° |
| 2026-05-08 05:28 | 39.63367 | 6.44922 | 7018 ft | 186 kts | 101° |
| 2026-05-08 05:29 | 39.63145 | 6.46552 | 7019 ft | 186 kts | 101° |
| 2026-05-08 05:29 | 39.62921 | 6.48201 | 7019 ft | 185 kts | 99° |
| 2026-05-08 05:29 | 39.62699 | 6.49835 | 7019 ft | 184 kts | 99° |
| 2026-05-08 05:29 | 39.62477 | 6.51467 | 7019 ft | 183 kts | 99° |
| 2026-05-08 05:30 | 39.62254 | 6.53098 | 7021 ft | 183 kts | 99° |
| 2026-05-08 05:30 | 39.62032 | 6.54723 | 7025 ft | 182 kts | 99° |
| 2026-05-08 05:30 | 39.61814 | 6.56317 | 7025 ft | 181 kts | 99° |
| 2026-05-08 05:30 | 39.61594 | 6.57927 | 7025 ft | 181 kts | 99° |
| 2026-05-08 05:31 | 39.61373 | 6.59537 | 7025 ft | 181 kts | 99° |
| 2026-05-08 05:31 | 39.61153 | 6.61144 | 7024 ft | 181 kts | 99° |
| 2026-05-08 05:31 | 39.60932 | 6.62753 | 7024 ft | 181 kts | 99° |
| 2026-05-08 05:31 | 39.60712 | 6.64357 | 7025 ft | 181 kts | 99° |
| 2026-05-08 05:32 | 39.60490 | 6.65968 | 7024 ft | 181 kts | 99° |
| 2026-05-08 05:32 | 39.60268 | 6.67576 | 7024 ft | 181 kts | 99° |
| 2026-05-08 05:32 | 39.60045 | 6.69191 | 7025 ft | 182 kts | 99° |
| 2026-05-08 05:32 | 39.59823 | 6.70805 | 7023 ft | 182 kts | 99° |
| 2026-05-08 05:33 | 39.59600 | 6.72417 | 7023 ft | 182 kts | 99° |
| 2026-05-08 05:33 | 39.59377 | 6.74029 | 7022 ft | 182 kts | 99° |
| 2026-05-08 05:33 | 39.59154 | 6.75638 | 7022 ft | 181 kts | 99° |
| 2026-05-08 05:33 | 39.58931 | 6.77247 | 7021 ft | 181 kts | 99° |
| 2026-05-08 05:34 | 39.58708 | 6.78854 | 7021 ft | 181 kts | 99° |
| 2026-05-08 05:34 | 39.58486 | 6.80458 | 7021 ft | 181 kts | 99° |
| 2026-05-08 05:34 | 39.58265 | 6.82043 | 7021 ft | 181 kts | 99° |
| 2026-05-08 05:34 | 39.58041 | 6.83647 | 7021 ft | 181 kts | 99° |
| 2026-05-08 05:35 | 39.57817 | 6.85255 | 7021 ft | 181 kts | 99° |
| 2026-05-08 05:35 | 39.57593 | 6.86863 | 7021 ft | 181 kts | 99° |
| 2026-05-08 05:35 | 39.57368 | 6.88475 | 7021 ft | 181 kts | 99° |
| 2026-05-08 05:35 | 39.57143 | 6.90084 | 7020 ft | 181 kts | 99° |
| 2026-05-08 05:36 | 39.56918 | 6.91693 | 7017 ft | 181 kts | 99° |
| 2026-05-08 05:36 | 39.56692 | 6.93305 | 7018 ft | 182 kts | 98° |
| 2026-05-08 05:36 | 39.56465 | 6.94926 | 7018 ft | 182 kts | 99° |
| 2026-05-08 05:36 | 39.56238 | 6.96542 | 7019 ft | 182 kts | 99° |
| 2026-05-08 05:37 | 39.56013 | 6.98138 | 7019 ft | 182 kts | 99° |
| 2026-05-08 05:37 | 39.55786 | 6.99757 | 7019 ft | 182 kts | 99° |
| 2026-05-08 05:37 | 39.55559 | 7.01370 | 7019 ft | 182 kts | 99° |
| 2026-05-08 05:37 | 39.55332 | 7.02982 | 7018 ft | 182 kts | 99° |
| 2026-05-08 05:38 | 39.55104 | 7.04594 | 7018 ft | 182 kts | 99° |
| 2026-05-08 05:38 | 39.54876 | 7.06206 | 7018 ft | 182 kts | 99° |
| 2026-05-08 05:38 | 39.54649 | 7.07816 | 7018 ft | 182 kts | 99° |
| 2026-05-08 05:38 | 39.54420 | 7.09428 | 7018 ft | 182 kts | 99° |
| 2026-05-08 05:39 | 39.54192 | 7.11042 | 7018 ft | 182 kts | 99° |
| 2026-05-08 05:39 | 39.53963 | 7.12657 | 7017 ft | 182 kts | 99° |
| 2026-05-08 05:39 | 39.53733 | 7.14271 | 7018 ft | 182 kts | 99° |
| 2026-05-08 05:39 | 39.53504 | 7.15882 | 7018 ft | 182 kts | 99° |
| 2026-05-08 05:40 | 39.53275 | 7.17491 | 7018 ft | 182 kts | 99° |
| 2026-05-08 05:40 | 39.53046 | 7.19102 | 7017 ft | 182 kts | 98° |
| 2026-05-08 05:40 | 39.52819 | 7.20693 | 7018 ft | 182 kts | 99° |
| 2026-05-08 05:40 | 39.52589 | 7.22309 | 7018 ft | 182 kts | 99° |
| 2026-05-08 05:41 | 39.52358 | 7.23923 | 7018 ft | 182 kts | 99° |
| 2026-05-08 05:41 | 39.52127 | 7.25538 | 7019 ft | 182 kts | 99° |
| 2026-05-08 05:41 | 39.51896 | 7.27153 | 7019 ft | 182 kts | 99° |
| 2026-05-08 05:41 | 39.51664 | 7.28770 | 7019 ft | 182 kts | 99° |
| 2026-05-08 05:42 | 39.51432 | 7.30383 | 7018 ft | 182 kts | 99° |
| 2026-05-08 05:42 | 39.51200 | 7.31998 | 7019 ft | 182 kts | 99° |
| 2026-05-08 05:42 | 39.50969 | 7.33611 | 7018 ft | 182 kts | 99° |
| 2026-05-08 05:42 | 39.50736 | 7.35223 | 7018 ft | 182 kts | 99° |
| 2026-05-08 05:43 | 39.50507 | 7.36815 | 7018 ft | 182 kts | 99° |
| 2026-05-08 05:43 | 39.50274 | 7.38431 | 7018 ft | 182 kts | 99° |
| 2026-05-08 05:43 | 39.50041 | 7.40045 | 7018 ft | 182 kts | 99° |
| 2026-05-08 05:43 | 39.49807 | 7.41659 | 7019 ft | 182 kts | 99° |
| 2026-05-08 05:44 | 39.49574 | 7.43274 | 7019 ft | 183 kts | 99° |
| 2026-05-08 05:44 | 39.49340 | 7.44892 | 7019 ft | 183 kts | 99° |
| 2026-05-08 05:44 | 39.49104 | 7.46517 | 7020 ft | 183 kts | 99° |
| 2026-05-08 05:44 | 39.48868 | 7.48141 | 7020 ft | 183 kts | 99° |
| 2026-05-08 05:45 | 39.48633 | 7.49761 | 7020 ft | 183 kts | 99° |
| 2026-05-08 05:45 | 39.48398 | 7.51378 | 7020 ft | 183 kts | 99° |
| 2026-05-08 05:45 | 39.48163 | 7.52995 | 7019 ft | 183 kts | 99° |
| 2026-05-08 05:45 | 39.47930 | 7.54592 | 7019 ft | 183 kts | 99° |
| 2026-05-08 05:46 | 39.47694 | 7.56211 | 7019 ft | 183 kts | 99° |
| 2026-05-08 05:46 | 39.47458 | 7.57826 | 7019 ft | 182 kts | 99° |
| 2026-05-08 05:46 | 39.47223 | 7.59440 | 7023 ft | 183 kts | 99° |
| 2026-05-08 05:46 | 39.46985 | 7.61058 | 7021 ft | 183 kts | 99° |
| 2026-05-08 05:47 | 39.46748 | 7.62680 | 7021 ft | 183 kts | 100° |
| 2026-05-08 05:47 | 39.46511 | 7.64297 | 7021 ft | 183 kts | 100° |
| 2026-05-08 05:47 | 39.46273 | 7.65917 | 7021 ft | 183 kts | 100° |
| 2026-05-08 05:47 | 39.46036 | 7.67532 | 7021 ft | 183 kts | 100° |
| 2026-05-08 05:48 | 39.45798 | 7.69150 | 7017 ft | 183 kts | 100° |
| 2026-05-08 05:48 | 39.45560 | 7.70768 | 7016 ft | 183 kts | 100° |
| 2026-05-08 05:48 | 39.45321 | 7.72389 | 7017 ft | 183 kts | 100° |
| 2026-05-08 05:48 | 39.45082 | 7.74012 | 7017 ft | 184 kts | 100° |
| 2026-05-08 05:49 | 39.44842 | 7.75633 | 7018 ft | 183 kts | 100° |
| 2026-05-08 05:49 | 39.44603 | 7.77257 | 7017 ft | 183 kts | 100° |
| 2026-05-08 05:49 | 39.44362 | 7.78877 | 7017 ft | 183 kts | 100° |
| 2026-05-08 05:49 | 39.44125 | 7.80482 | 7017 ft | 183 kts | 100° |
| 2026-05-08 05:50 | 39.43885 | 7.82103 | 7017 ft | 183 kts | 100° |
| 2026-05-08 05:50 | 39.43645 | 7.83720 | 7017 ft | 183 kts | 100° |
| 2026-05-08 05:50 | 39.43404 | 7.85341 | 7017 ft | 183 kts | 100° |
| 2026-05-08 05:50 | 39.43163 | 7.86960 | 7018 ft | 183 kts | 100° |
| 2026-05-08 05:51 | 39.42922 | 7.88582 | 7017 ft | 184 kts | 100° |
| 2026-05-08 05:51 | 39.42680 | 7.90202 | 7017 ft | 183 kts | 100° |
| 2026-05-08 05:51 | 39.42439 | 7.91821 | 7017 ft | 183 kts | 100° |
| 2026-05-08 05:51 | 39.42198 | 7.93440 | 7016 ft | 183 kts | 100° |
| 2026-05-08 05:52 | 39.42037 | 7.94512 | 7016 ft | 183 kts | 100° |
| 2026-05-08 05:52 | 39.41795 | 7.96129 | 7016 ft | 183 kts | 100° |
| 2026-05-08 05:52 | 39.41554 | 7.97747 | 7020 ft | 183 kts | 101° |
| 2026-05-08 05:52 | 39.41231 | 7.99899 | 7019 ft | 184 kts | 101° |
| 2026-05-08 05:53 | 39.40986 | 8.01530 | 7021 ft | 185 kts | 101° |
| 2026-05-08 05:53 | 39.40741 | 8.03168 | 7020 ft | 186 kts | 101° |
| 2026-05-08 05:53 | 39.40574 | 8.04275 | 7019 ft | 186 kts | 101° |
| 2026-05-08 05:53 | 39.40327 | 8.05914 | 7019 ft | 186 kts | 101° |
| 2026-05-08 05:54 | 39.40081 | 8.07551 | 7017 ft | 185 kts | 101° |
| 2026-05-08 05:54 | 39.39835 | 8.09186 | 7018 ft | 185 kts | 101° |
| 2026-05-08 05:54 | 39.39589 | 8.10815 | 7017 ft | 185 kts | 101° |
| 2026-05-08 05:54 | 39.39347 | 8.12420 | 7017 ft | 185 kts | 101° |
| 2026-05-08 05:55 | 39.39099 | 8.14053 | 7017 ft | 185 kts | 101° |
| 2026-05-08 05:55 | 39.38854 | 8.15679 | 7017 ft | 184 kts | 101° |
| 2026-05-08 05:55 | 39.38607 | 8.17306 | 7017 ft | 184 kts | 101° |
| 2026-05-08 05:55 | 39.38361 | 8.18932 | 7017 ft | 184 kts | 101° |
| 2026-05-08 05:56 | 39.38114 | 8.20556 | 7017 ft | 184 kts | 101° |
| 2026-05-08 05:56 | 39.37867 | 8.22185 | 7016 ft | 185 kts | 101° |
| 2026-05-08 05:56 | 39.37618 | 8.23820 | 7017 ft | 185 kts | 101° |
| 2026-05-08 05:56 | 39.37370 | 8.25451 | 7017 ft | 185 kts | 101° |
| 2026-05-08 05:57 | 39.37121 | 8.27079 | 7017 ft | 184 kts | 101° |
| 2026-05-08 05:57 | 39.36874 | 8.28703 | 7017 ft | 184 kts | 101° |
| 2026-05-08 05:57 | 39.36626 | 8.30331 | 7017 ft | 184 kts | 101° |
| 2026-05-08 05:57 | 39.36377 | 8.31957 | 7016 ft | 184 kts | 101° |
| 2026-05-08 05:58 | 39.36128 | 8.33583 | 7017 ft | 185 kts | 101° |
| 2026-05-08 05:58 | 39.35882 | 8.35190 | 7017 ft | 184 kts | 101° |
| 2026-05-08 05:58 | 39.35634 | 8.36814 | 7017 ft | 184 kts | 101° |
| 2026-05-08 05:58 | 39.35381 | 8.38459 | 7016 ft | 184 kts | 101° |
| 2026-05-08 05:59 | 39.35135 | 8.40060 | 7017 ft | 184 kts | 101° |
| 2026-05-08 05:59 | 39.34884 | 8.41690 | 7017 ft | 184 kts | 101° |
| 2026-05-08 05:59 | 39.34634 | 8.43318 | 7018 ft | 185 kts | 101° |
| 2026-05-08 05:59 | 39.34384 | 8.44943 | 7017 ft | 184 kts | 101° |
| 2026-05-08 06:00 | 39.34134 | 8.46566 | 7015 ft | 185 kts | 101° |
| 2026-05-08 06:00 | 39.33882 | 8.48196 | 7015 ft | 185 kts | 102° |
| 2026-05-08 06:00 | 39.33630 | 8.49828 | 7015 ft | 185 kts | 101° |
| 2026-05-08 06:00 | 39.33377 | 8.51460 | 7014 ft | 185 kts | 101° |
| 2026-05-08 06:01 | 39.33126 | 8.53084 | 7013 ft | 184 kts | 101° |
| 2026-05-08 06:01 | 39.32875 | 8.54707 | 7010 ft | 184 kts | 101° |
| 2026-05-08 06:01 | 39.32623 | 8.56330 | 7006 ft | 184 kts | 101° |
| 2026-05-08 06:01 | 39.32374 | 8.57929 | 7005 ft | 184 kts | 101° |
| 2026-05-08 06:02 | 39.32123 | 8.59547 | 7004 ft | 184 kts | 101° |
| 2026-05-08 06:02 | 39.31872 | 8.61161 | 7003 ft | 183 kts | 101° |
| 2026-05-08 06:02 | 39.31621 | 8.62778 | 7000 ft | 183 kts | 101° |
| 2026-05-08 06:02 | 39.31369 | 8.64394 | 7000 ft | 184 kts | 101° |
| 2026-05-08 06:03 | 39.31117 | 8.66011 | 6997 ft | 184 kts | 102° |
| 2026-05-08 06:03 | 39.30863 | 8.67637 | 6995 ft | 184 kts | 101° |
| 2026-05-08 06:03 | 39.30609 | 8.69256 | 6994 ft | 184 kts | 101° |
| 2026-05-08 06:03 | 39.30356 | 8.70878 | 6995 ft | 184 kts | 101° |
| 2026-05-08 06:04 | 39.30104 | 8.72486 | 6997 ft | 186 kts | 102° |
| 2026-05-08 06:04 | 39.29849 | 8.74118 | 6974 ft | 186 kts | 102° |
| 2026-05-08 06:04 | 39.29592 | 8.75744 | 6851 ft | 183 kts | 102° |
| 2026-05-08 06:04 | 39.29340 | 8.77351 | 6727 ft | 181 kts | 102° |
| 2026-05-08 06:05 | 39.29091 | 8.78940 | 6590 ft | 180 kts | 102° |
| 2026-05-08 06:05 | 39.28841 | 8.80526 | 6420 ft | 179 kts | 102° |
| 2026-05-08 06:05 | 39.28597 | 8.82073 | 6242 ft | 173 kts | 102° |
| 2026-05-08 06:05 | 39.28359 | 8.83583 | 6056 ft | 170 kts | 102° |
| 2026-05-08 06:06 | 39.28126 | 8.85066 | 5875 ft | 168 kts | 102° |
| 2026-05-08 06:06 | 39.27894 | 8.86534 | 5685 ft | 166 kts | 102° |
| 2026-05-08 06:06 | 39.27663 | 8.87993 | 5508 ft | 165 kts | 102° |
| 2026-05-08 06:06 | 39.27437 | 8.89423 | 5327 ft | 164 kts | 102° |
| 2026-05-08 06:07 | 39.27208 | 8.90874 | 5099 ft | 167 kts | 102° |
| 2026-05-08 06:07 | 39.26974 | 8.92349 | 4853 ft | 169 kts | 102° |
| 2026-05-08 06:07 | 39.26673 | 8.93811 | 4599 ft | 170 kts | 117° |
| 2026-05-08 06:07 | 39.25877 | 8.94934 | 4369 ft | 171 kts | 137° |
| 2026-05-08 06:08 | 39.24982 | 8.95941 | 4121 ft | 171 kts | 138° |
| 2026-05-08 06:08 | 39.24084 | 8.96943 | 3867 ft | 171 kts | 138° |
| 2026-05-08 06:08 | 39.23178 | 8.97949 | 3624 ft | 172 kts | 138° |
| 2026-05-08 06:08 | 39.22268 | 8.98956 | 3377 ft | 173 kts | 138° |
| 2026-05-08 06:09 | 39.21348 | 8.99961 | 3128 ft | 173 kts | 138° |
| 2026-05-08 06:09 | 39.20444 | 9.00940 | 3004 ft | 167 kts | 138° |
| 2026-05-08 06:09 | 39.19579 | 9.01871 | 2997 ft | 158 kts | 138° |
| 2026-05-08 06:09 | 39.18754 | 9.02763 | 2989 ft | 152 kts | 138° |
| 2026-05-08 06:10 | 39.17956 | 9.03630 | 2973 ft | 149 kts | 138° |
| 2026-05-08 06:10 | 39.17132 | 9.04529 | 2724 ft | 159 kts | 138° |
| 2026-05-08 06:10 | 39.16268 | 9.05456 | 2474 ft | 163 kts | 139° |
| 2026-05-08 06:10 | 39.15428 | 9.06438 | 2220 ft | 163 kts | 127° |
| 2026-05-08 06:11 | 39.15126 | 9.07812 | 1958 ft | 163 kts | 82° |
| 2026-05-08 06:11 | 39.15623 | 9.09099 | 1715 ft | 162 kts | 51° |
| 2026-05-08 06:11 | 39.16315 | 9.10219 | 1463 ft | 158 kts | 50° |
| 2026-05-08 06:11 | 39.16991 | 9.11296 | 1215 ft | 156 kts | 50° |
| 2026-05-08 06:12 | 39.17653 | 9.12348 | 1124 ft | 146 kts | 49° |
| 2026-05-08 06:12 | 39.18502 | 9.12900 | 1057 ft | 138 kts | 360° |
| 2026-05-08 06:12 | 39.19323 | 9.12360 | 1005 ft | 133 kts | 314° |
| 2026-05-08 06:12 | 39.19902 | 9.11506 | 949 ft | 121 kts | 313° |
| 2026-05-08 06:13 | 39.20459 | 9.10753 | 921 ft | 110 kts | 321° |
| 2026-05-08 06:13 | 39.21014 | 9.10126 | 881 ft | 100 kts | 320° |
| 2026-05-08 06:13 | 39.21499 | 9.09558 | 787 ft | 93 kts | 321° |
| 2026-05-08 06:13 | 39.21977 | 9.09010 | 679 ft | 89 kts | 321° |
| 2026-05-08 06:14 | 39.22438 | 9.08512 | 578 ft | 84 kts | 323° |
| 2026-05-08 06:14 | 39.22885 | 9.08023 | 455 ft | 85 kts | 321° |
| 2026-05-08 06:14 | 39.23333 | 9.07503 | 279 ft | 86 kts | 318° |
| 2026-05-08 06:14 | 39.23761 | 9.07002 | 163 ft | 82 kts | 323° |
| 2026-05-08 06:15 | 39.24189 | 9.06533 | 40 ft | 81 kts | 321° |
| 2026-05-08 06:15 | 39.24569 | 9.06100 | 11 ft | 63 kts | 318° |
| 2026-05-08 06:15 | 39.24834 | 9.05797 | 14 ft | 40 kts | 319° |
| 2026-05-08 06:15 | 39.24976 | 9.05628 | 14 ft | 21 kts | 319° |
| 2026-05-08 06:16 | 39.25062 | 9.05626 | 14 ft | 13 kts | 58° |
| 2026-05-08 06:16 | 39.25089 | 9.05687 | 13 ft | 0 kts | 57° |
| 2026-05-08 06:17 | 39.25091 | 9.05690 | 13 ft | 3 kts | 57° |
| 2026-05-08 06:17 | 39.25120 | 9.05755 | 13 ft | 14 kts | 61° |
| 2026-05-08 06:17 | 39.25160 | 9.05852 | 13 ft | 7 kts | 79° |
| 2026-05-08 06:18 | 39.25114 | 9.05933 | 13 ft | 11 kts | 134° |
| 2026-05-08 06:18 | 39.25053 | 9.06018 | 12 ft | 9 kts | 133° |
| 2026-05-08 06:18 | 39.24992 | 9.06102 | 12 ft | 16 kts | 135° |
| 2026-05-08 06:18 | 39.24923 | 9.06180 | 12 ft | 12 kts | 140° |
| 2026-05-08 06:19 | 39.24875 | 9.06229 | 12 ft | 9 kts | 142° |
| 2026-05-08 06:19 | 39.24852 | 9.06279 | 12 ft | 6 kts | 71° |
| 2026-05-08 06:19 | 39.24879 | 9.06331 | 12 ft | 7 kts | 30° |
| 2026-05-08 06:19 | 39.24914 | 9.06304 | 12 ft | 7 kts | 292° |
| 2026-05-08 06:20 | 39.24908 | 9.06283 | 12 ft | 0 kts | 233° |
| 2026-05-08 06:20 | 39.24906 | 9.06280 | 12 ft | 0 kts | 242° |
| 2026-05-08 06:24 | 39.86121 | 4.22257 | 12 ft | 3 kts | 9° |